Terminal Aerodrome Forecast
Issued by NWS Milwaukee/Sullivan, WI

Home | Current Version | Previous Version | Text Only | Print | Product List | Glossary On
Versions: 1 2 3 4 5 6 7 8 9 10 11 12 13 14 15 16 17 18 19 20 21 22 23 24 25
000
FTUS43 KMKX 251741
TAFMSN
TAF
KMSN 251741Z 2518/2618 28011KT P6SM BKN040
     FM252100 29011G20KT P6SM VCSH BKN050
     FM260000 29009KT P6SM BKN050
     FM260200 29007KT P6SM SCT200
     FM261500 31011G19KT P6SM FEW050 SCT250=

USA.gov is the U.S. government's official web portal to all federal, state and local government web resources and services.